createdAt,value
2022-08-26T00:01:54.451Z,18.60
2022-08-26T00:04:23.834Z,18.50
2022-08-26T00:06:51.560Z,18.50
2022-08-26T00:09:19.164Z,18.40
2022-08-26T00:11:46.606Z,18.50
2022-08-26T00:14:15.893Z,18.50
2022-08-26T00:16:47.117Z,18.50
2022-08-26T00:19:20.197Z,18.40
2022-08-26T00:21:48.712Z,18.40
2022-08-26T00:24:17.088Z,18.30
2022-08-26T00:26:44.737Z,18.30
2022-08-26T00:29:12.372Z,18.20
2022-08-26T00:31:40.785Z,18.00
2022-08-26T00:34:09.576Z,18.00
2022-08-26T00:36:37.415Z,18.00
2022-08-26T00:39:07.579Z,17.90
2022-08-26T00:41:36.156Z,18.00
2022-08-26T00:44:03.656Z,17.90
2022-08-26T00:46:36.691Z,17.90
2022-08-26T00:49:12.232Z,17.90
2022-08-26T00:51:53.479Z,17.80
2022-08-26T00:54:23.869Z,17.90
2022-08-26T00:57:01.949Z,17.80
2022-08-26T00:59:32.698Z,17.90
2022-08-26T01:02:02.887Z,18.00
2022-08-26T01:04:31.587Z,18.00
2022-08-26T01:06:59.433Z,17.90
2022-08-26T01:09:27.145Z,17.80
2022-08-26T01:11:57.620Z,17.70
2022-08-26T01:14:29.836Z,17.60
2022-08-26T01:16:57.087Z,17.60
2022-08-26T01:19:31.010Z,17.60
2022-08-26T01:22:02.537Z,17.50
2022-08-26T01:24:31.013Z,17.40
2022-08-26T01:27:02.563Z,17.40
2022-08-26T01:29:31.592Z,17.40
2022-08-26T01:31:59.273Z,17.50
2022-08-26T01:34:32.899Z,17.50
2022-08-26T01:37:07.989Z,17.50
2022-08-26T01:39:41.165Z,17.50
2022-08-26T01:42:12.445Z,17.50
2022-08-26T01:44:57.406Z,17.40
2022-08-26T01:47:27.033Z,17.30
2022-08-26T01:50:00.041Z,17.40
2022-08-26T01:52:30.308Z,17.50
2022-08-26T01:54:59.034Z,17.50
2022-08-26T01:57:27.556Z,17.50
2022-08-26T01:59:58.599Z,17.40
2022-08-26T02:02:26.404Z,17.40
2022-08-26T02:04:59.880Z,17.30
2022-08-26T02:07:28.106Z,17.20
2022-08-26T02:09:55.302Z,17.10
2022-08-26T02:12:23.016Z,17.10
2022-08-26T02:14:54.186Z,17.10
2022-08-26T02:17:26.622Z,17.00
2022-08-26T02:19:53.890Z,17.00
2022-08-26T02:22:22.902Z,16.90
2022-08-26T02:24:57.879Z,16.80
2022-08-26T02:27:33.628Z,16.80
2022-08-26T02:30:17.847Z,16.80
2022-08-26T02:32:45.505Z,16.90
2022-08-26T02:35:18.326Z,16.70
2022-08-26T02:37:49.485Z,16.70
2022-08-26T02:40:19.191Z,16.60
2022-08-26T02:42:46.326Z,16.50
2022-08-26T02:45:13.626Z,16.50
2022-08-26T02:47:51.676Z,16.50
2022-08-26T02:50:20.643Z,16.70
2022-08-26T02:52:48.522Z,16.70
2022-08-26T02:55:16.290Z,16.70
2022-08-26T02:57:43.901Z,16.70
2022-08-26T03:00:14.755Z,16.70
2022-08-26T03:02:41.800Z,16.60
2022-08-26T03:05:10.414Z,16.80
2022-08-26T03:07:37.821Z,16.60
2022-08-26T03:10:08.693Z,16.60
2022-08-26T03:12:37.153Z,16.60
2022-08-26T03:15:16.420Z,16.70
2022-08-26T03:17:47.021Z,16.70
2022-08-26T03:20:15.618Z,16.60
2022-08-26T03:22:44.803Z,16.50
2022-08-26T03:25:14.921Z,16.60
2022-08-26T03:27:43.002Z,16.40
2022-08-26T03:30:38.554Z,16.40
2022-08-26T03:33:13.096Z,16.40
2022-08-26T03:35:41.801Z,16.30
2022-08-26T03:38:09.277Z,16.30
2022-08-26T03:40:38.022Z,16.30
2022-08-26T03:43:06.521Z,16.30
2022-08-26T03:45:37.851Z,16.30
2022-08-26T03:48:05.644Z,16.20
2022-08-26T03:50:34.138Z,16.20
2022-08-26T03:53:01.971Z,16.20
2022-08-26T03:55:32.140Z,16.20
2022-08-26T03:57:59.530Z,16.10
2022-08-26T04:00:27.132Z,16.10
2022-08-26T04:02:54.442Z,16.10
2022-08-26T04:05:23.106Z,16.10
2022-08-26T04:07:50.616Z,16.10
2022-08-26T04:10:29.049Z,16.20
2022-08-26T04:12:58.852Z,16.20
2022-08-26T04:15:27.063Z,16.10
2022-08-26T04:17:54.505Z,16.10
2022-08-26T04:20:23.178Z,16.20
2022-08-26T04:22:51.097Z,16.20
2022-08-26T04:25:18.717Z,16.10
2022-08-26T04:27:48.185Z,15.90
2022-08-26T04:30:16.682Z,16.00
2022-08-26T04:32:44.056Z,16.00
2022-08-26T04:35:11.195Z,15.90
2022-08-26T04:37:38.267Z,15.90
2022-08-26T04:40:06.679Z,15.90
2022-08-26T04:42:34.302Z,15.90
2022-08-26T04:45:02.019Z,15.90
2022-08-26T04:47:33.071Z,15.90
2022-08-26T04:50:00.194Z,16.00
2022-08-26T04:52:29.099Z,16.00
2022-08-26T04:54:58.002Z,15.90
2022-08-26T04:57:25.040Z,15.90
2022-08-26T04:59:53.267Z,16.00
2022-08-26T05:02:20.269Z,16.00
2022-08-26T05:04:47.272Z,16.10
2022-08-26T05:07:14.280Z,16.10
2022-08-26T05:09:45.255Z,16.10
2022-08-26T05:12:12.299Z,16.20
2022-08-26T05:14:41.601Z,16.20
2022-08-26T05:17:09.303Z,16.30
2022-08-26T05:19:43.072Z,16.30
2022-08-26T05:22:10.272Z,16.40
2022-08-26T05:24:41.211Z,16.40
2022-08-26T05:27:11.807Z,16.40
2022-08-26T05:29:39.414Z,16.70
2022-08-26T05:32:06.905Z,16.80
2022-08-26T05:34:34.398Z,16.80
2022-08-26T05:37:02.065Z,16.90
2022-08-26T05:39:29.423Z,16.90
2022-08-26T05:41:56.478Z,16.90
2022-08-26T05:44:23.885Z,17.00
2022-08-26T05:46:51.850Z,17.10
2022-08-26T05:49:19.941Z,17.40
2022-08-26T05:51:49.545Z,17.40
2022-08-26T05:54:21.365Z,17.40
2022-08-26T05:56:52.816Z,17.50
2022-08-26T05:59:24.066Z,17.80
2022-08-26T06:01:53.114Z,18.00
2022-08-26T06:04:20.282Z,18.00
2022-08-26T06:06:47.502Z,18.10
2022-08-26T06:09:14.926Z,18.10
2022-08-26T06:11:45.496Z,18.30
2022-08-26T06:14:12.664Z,18.30
2022-08-26T06:16:43.904Z,18.40
2022-08-26T06:19:13.742Z,18.50
2022-08-26T06:21:45.065Z,18.50
2022-08-26T06:24:32.532Z,18.50
2022-08-26T06:27:05.649Z,18.70
2022-08-26T06:29:34.955Z,18.90
2022-08-26T06:32:03.883Z,18.80
2022-08-26T06:34:31.071Z,19.10
2022-08-26T06:37:02.798Z,19.20
2022-08-26T06:39:31.634Z,19.30
2022-08-26T06:42:00.160Z,19.50
2022-08-26T06:44:27.885Z,19.50
2022-08-26T06:46:55.429Z,19.80
2022-08-26T06:49:26.880Z,19.90
2022-08-26T06:51:55.407Z,19.90
2022-08-26T06:54:22.513Z,19.80
2022-08-26T06:56:49.767Z,19.80
2022-08-26T06:59:16.777Z,20.00
2022-08-26T07:01:45.422Z,20.20
2022-08-26T07:04:15.455Z,20.40
2022-08-26T07:06:47.135Z,20.60
2022-08-26T07:09:14.572Z,20.90
2022-08-26T07:11:42.295Z,21.30
2022-08-26T07:14:09.423Z,21.10
2022-08-26T07:16:36.496Z,21.40
2022-08-26T07:19:10.762Z,21.90
2022-08-26T07:21:41.574Z,22.20
2022-08-26T07:24:11.027Z,22.40
2022-08-26T07:26:39.118Z,22.40
2022-08-26T07:29:12.525Z,22.10
2022-08-26T07:31:42.850Z,21.90
2022-08-26T07:34:11.355Z,21.90
2022-08-26T07:36:41.838Z,22.30
2022-08-26T07:39:09.001Z,22.90
2022-08-26T07:41:36.655Z,23.10
2022-08-26T07:44:04.331Z,23.00
2022-08-26T07:46:31.730Z,22.90
2022-08-26T07:48:59.339Z,22.60
2022-08-26T07:51:27.322Z,22.80
2022-08-26T07:53:55.417Z,22.80
2022-08-26T07:56:23.413Z,22.90
2022-08-26T07:58:52.238Z,23.30
2022-08-26T08:01:21.148Z,23.80
2022-08-26T08:03:51.556Z,23.70
2022-08-26T08:06:20.515Z,24.10
2022-08-26T08:08:50.791Z,24.10
2022-08-26T08:11:23.327Z,24.10
2022-08-26T08:13:56.059Z,23.70
2022-08-26T08:16:26.016Z,24.10
2022-08-26T08:18:53.566Z,24.60
2022-08-26T08:21:23.654Z,24.60
2022-08-26T08:23:53.508Z,24.50
2022-08-26T08:26:21.393Z,24.50
2022-08-26T08:28:48.630Z,24.60
2022-08-26T08:34:22.589Z,24.90
2022-08-26T08:36:53.392Z,24.70
2022-08-26T08:39:20.813Z,24.60
2022-08-26T08:42:23.805Z,24.80
2022-08-26T08:44:55.653Z,24.80
2022-08-26T08:47:36.034Z,25.00
2022-08-26T08:50:27.389Z,24.60
2022-08-26T08:53:34.890Z,24.50
2022-08-26T08:56:21.330Z,24.60
2022-08-26T08:59:38.573Z,24.90
2022-08-26T09:02:36.087Z,25.80
2022-08-26T09:05:28.187Z,26.10
2022-08-26T09:08:19.861Z,25.90
2022-08-26T09:10:59.645Z,25.90
2022-08-26T09:13:28.411Z,25.90
2022-08-26T09:16:15.890Z,25.90
2022-08-26T09:19:19.005Z,26.20
2022-08-26T09:21:46.490Z,25.70
2022-08-26T09:24:20.598Z,26.30
2022-08-26T09:26:49.774Z,26.50
2022-08-26T09:29:29.654Z,26.90
2022-08-26T09:32:22.161Z,27.50
2022-08-26T09:34:56.457Z,27.30
2022-08-26T09:40:35.384Z,27.20
2022-08-26T09:43:16.150Z,27.60
2022-08-26T09:46:09.524Z,28.20
2022-08-26T09:48:43.087Z,28.50
2022-08-26T09:51:42.546Z,28.80
2022-08-26T09:54:30.355Z,28.60
2022-08-26T09:57:19.255Z,29.00
2022-08-26T09:59:46.672Z,28.80
2022-08-26T10:02:37.881Z,27.70
2022-08-26T10:07:47.203Z,27.60
2022-08-26T10:10:39.976Z,27.90
2022-08-26T10:13:14.018Z,28.50
2022-08-26T10:16:28.581Z,28.40
2022-08-26T10:19:22.360Z,28.20
2022-08-26T10:22:01.917Z,28.50
2022-08-26T10:24:34.995Z,28.30
2022-08-26T10:27:28.719Z,28.30
2022-08-26T10:30:04.214Z,28.00
2022-08-26T10:33:02.237Z,28.00
2022-08-26T10:35:30.910Z,28.90
2022-08-26T10:38:16.277Z,28.70
2022-08-26T10:44:03.591Z,28.50
2022-08-26T10:46:50.265Z,29.20
2022-08-26T10:49:19.071Z,29.20
2022-08-26T10:52:16.337Z,30.00
2022-08-26T10:55:26.919Z,30.50
2022-08-26T10:58:07.305Z,29.60
2022-08-26T11:01:10.587Z,30.50
2022-08-26T11:04:48.111Z,29.50
2022-08-26T11:07:57.214Z,28.50
2022-08-26T11:11:09.312Z,29.00
2022-08-26T11:13:59.159Z,29.90
2022-08-26T11:16:57.509Z,29.70
2022-08-26T11:20:02.026Z,29.80
2022-08-26T11:22:36.345Z,28.90
2022-08-26T11:25:06.726Z,28.80
2022-08-26T11:27:54.391Z,28.80
2022-08-26T11:30:43.036Z,29.00
2022-08-26T11:33:31.253Z,28.90
2022-08-26T11:35:58.427Z,29.30
2022-08-26T11:38:29.552Z,29.50
2022-08-26T11:41:11.455Z,29.60
2022-08-26T11:43:40.661Z,29.50
2022-08-26T11:46:12.523Z,29.10
2022-08-26T11:48:43.978Z,28.90
2022-08-26T11:51:24.049Z,29.80
2022-08-26T11:53:51.375Z,29.90
2022-08-26T11:56:28.820Z,30.80
2022-08-26T11:59:02.277Z,30.50
2022-08-26T12:01:50.570Z,31.00
2022-08-26T12:04:37.857Z,31.80
2022-08-26T12:07:08.780Z,30.90
2022-08-26T12:09:50.191Z,30.60
2022-08-26T12:12:35.145Z,31.10
2022-08-26T12:15:24.167Z,31.00
2022-08-26T12:17:54.471Z,32.20
2022-08-26T12:20:48.186Z,31.50
2022-08-26T12:23:46.070Z,31.50
2022-08-26T12:26:27.002Z,31.00
2022-08-26T12:29:00.707Z,30.50
2022-08-26T12:31:33.755Z,30.10
2022-08-26T12:34:04.253Z,30.80
2022-08-26T12:36:37.948Z,32.30
2022-08-26T12:39:16.213Z,31.50
2022-08-26T12:41:50.093Z,31.20
2022-08-26T12:49:39.694Z,31.70
2022-08-26T13:02:45.943Z,31.00
2022-08-26T13:08:11.109Z,30.60
2022-08-26T13:10:41.106Z,30.80
2022-08-26T13:13:08.311Z,32.00
2022-08-26T13:15:35.570Z,30.60
2022-08-26T13:18:03.466Z,30.10
2022-08-26T13:20:30.737Z,30.10
2022-08-26T13:22:59.333Z,30.80
2022-08-26T13:25:27.209Z,31.50
2022-08-26T13:27:55.335Z,31.60
2022-08-26T13:30:22.489Z,31.30
2022-08-26T13:32:52.362Z,30.70
2022-08-26T13:35:20.475Z,31.50
2022-08-26T13:37:47.544Z,31.50
2022-08-26T13:40:14.719Z,31.70
2022-08-26T13:42:49.521Z,31.50
2022-08-26T13:45:17.430Z,32.30
2022-08-26T13:47:44.723Z,31.50
2022-08-26T13:50:11.815Z,30.80
2022-08-26T13:52:38.840Z,30.70
2022-08-26T14:02:36.121Z,31.30
2022-08-26T14:05:03.219Z,31.10
2022-08-26T14:07:30.319Z,30.20
2022-08-26T14:09:57.996Z,30.20
2022-08-26T14:12:25.393Z,31.30
2022-08-26T14:14:52.458Z,30.40
2022-08-26T14:17:22.213Z,30.30
2022-08-26T14:19:50.573Z,30.10
2022-08-26T14:22:19.846Z,30.20
2022-08-26T14:32:17.321Z,29.00
2022-08-26T14:34:48.771Z,29.90
2022-08-26T14:37:16.141Z,30.50
2022-08-26T14:42:11.755Z,29.30
2022-08-26T14:44:45.961Z,28.00
2022-08-26T14:47:13.309Z,28.40
2022-08-26T14:49:40.611Z,27.50
2022-08-26T14:52:07.939Z,27.50
2022-08-26T14:54:35.286Z,27.70
2022-08-26T14:57:05.606Z,27.60
2022-08-26T15:04:35.175Z,26.50
2022-08-26T15:07:03.718Z,26.30
2022-08-26T15:09:33.551Z,26.20
2022-08-26T15:12:01.567Z,26.10
2022-08-26T15:14:32.821Z,26.20
2022-08-26T15:17:00.599Z,26.20
2022-08-26T15:19:28.224Z,26.30
2022-08-26T15:21:55.412Z,26.60
2022-08-26T15:24:25.143Z,26.60
2022-08-26T15:26:53.664Z,26.30
2022-08-26T15:29:24.005Z,25.80
2022-08-26T15:31:51.613Z,25.80
2022-08-26T15:36:50.248Z,25.70
2022-08-26T15:39:17.667Z,25.80
2022-08-26T15:41:45.638Z,25.60
2022-08-26T15:44:14.413Z,25.50
2022-08-26T15:46:42.186Z,25.50
2022-08-26T15:51:46.234Z,25.30
2022-08-26T15:54:16.078Z,25.30
2022-08-26T16:04:06.847Z,25.10
2022-08-26T16:06:36.876Z,25.10
2022-08-26T16:09:06.406Z,25.00
2022-08-26T16:11:34.621Z,24.90
2022-08-26T16:14:02.206Z,24.90
2022-08-26T16:16:29.311Z,24.90
2022-08-26T16:18:56.457Z,24.90
2022-08-26T16:23:52.343Z,24.70
2022-08-26T16:26:22.493Z,24.60
2022-08-26T16:28:49.660Z,24.50
2022-08-26T16:31:17.256Z,24.60
2022-08-26T16:33:44.426Z,24.60
2022-08-26T16:36:12.196Z,24.50
2022-08-26T17:43:16.790Z,23.80
2022-08-26T17:48:12.055Z,23.60
2022-08-26T17:50:41.424Z,23.60
2022-08-26T17:53:08.980Z,23.50
2022-08-26T17:55:41.863Z,23.50
2022-08-26T17:58:14.582Z,23.40
2022-08-26T18:00:47.151Z,23.40
2022-08-26T18:03:14.335Z,23.40
2022-08-26T18:05:42.668Z,23.20
2022-08-26T18:08:10.009Z,23.30
2022-08-26T18:10:37.147Z,23.20
2022-08-26T18:13:04.168Z,23.20
2022-08-26T18:15:31.308Z,23.20
2022-08-26T18:17:58.394Z,23.20
2022-08-26T18:20:25.546Z,23.20
2022-08-26T18:22:53.929Z,23.10
2022-08-26T18:25:21.317Z,23.10
2022-08-26T18:27:48.356Z,23.00
2022-08-26T18:35:12.520Z,22.90
2022-08-26T18:37:40.615Z,23.00
2022-08-26T18:40:11.317Z,22.90
2022-08-26T18:42:38.644Z,22.90
2022-08-26T18:45:07.577Z,22.90
2022-08-26T18:47:34.944Z,22.80
2022-08-26T18:52:31.814Z,22.50
2022-08-26T18:54:59.544Z,22.60
2022-08-26T18:57:26.587Z,22.60
2022-08-26T18:59:53.619Z,22.40
2022-08-26T19:02:20.758Z,22.20
2022-08-26T19:04:47.862Z,22.30
2022-08-26T19:09:42.308Z,21.50
2022-08-26T19:12:09.634Z,21.40
2022-08-26T19:14:36.985Z,21.40
2022-08-26T19:17:05.665Z,21.20
2022-08-26T19:19:33.256Z,21.10
2022-08-26T19:22:00.744Z,20.80
2022-08-26T19:24:28.524Z,20.70
2022-08-26T19:26:58.350Z,20.60
2022-08-26T19:29:28.276Z,20.60
2022-08-26T19:31:55.692Z,20.50
2022-08-26T19:34:23.104Z,20.70
2022-08-26T19:36:51.854Z,20.60
2022-08-26T19:39:19.619Z,20.60
2022-08-26T19:41:47.241Z,20.50
2022-08-26T19:49:42.668Z,20.50
2022-08-26T19:52:11.515Z,20.50
2022-08-26T21:19:16.293Z,18.10
2022-08-26T21:21:44.575Z,18.10
2022-08-26T21:24:12.267Z,18.00
2022-08-26T21:26:39.479Z,17.90
2022-08-26T21:29:09.666Z,18.00
2022-08-26T21:31:42.249Z,18.00
2022-08-26T21:34:13.381Z,18.10
2022-08-26T21:36:40.422Z,18.10
2022-08-26T21:39:11.531Z,18.20
2022-08-26T21:41:40.597Z,18.10
2022-08-26T21:44:08.221Z,18.10
2022-08-26T21:46:37.683Z,18.10
2022-08-26T21:49:07.602Z,18.10
2022-08-26T21:51:40.964Z,18.10
2022-08-26T21:54:11.023Z,18.10
2022-08-26T21:56:42.236Z,18.20
2022-08-26T21:59:09.489Z,18.10
2022-08-26T22:01:37.772Z,18.10
2022-08-26T22:04:07.284Z,18.10
2022-08-26T22:06:40.662Z,18.20
2022-08-26T22:09:08.042Z,18.20
2022-08-26T22:11:35.223Z,18.30
2022-08-26T22:14:02.313Z,18.40
2022-08-26T22:16:29.365Z,18.30
2022-08-26T22:18:56.563Z,18.30
2022-08-26T22:21:26.105Z,18.30
2022-08-26T22:23:56.176Z,18.20
2022-08-26T22:26:29.137Z,18.20
2022-08-26T22:28:59.138Z,18.20
2022-08-26T22:31:37.577Z,18.20
2022-08-26T22:34:08.520Z,18.20
2022-08-26T22:36:37.411Z,18.20
2022-08-26T22:39:11.410Z,18.20
2022-08-26T22:41:38.579Z,18.30
2022-08-26T22:44:05.728Z,18.30
2022-08-26T22:46:34.892Z,18.30
2022-08-26T22:49:04.494Z,18.30
2022-08-26T22:51:32.014Z,18.30
2022-08-26T22:53:59.261Z,18.20
2022-08-26T22:56:26.384Z,18.20
2022-08-26T22:58:53.490Z,18.20
2022-08-26T23:01:20.562Z,18.20
2022-08-26T23:03:47.835Z,18.20
2022-08-26T23:06:15.017Z,18.20
2022-08-26T23:08:45.270Z,18.20
2022-08-26T23:11:13.357Z,18.30
2022-08-26T23:13:41.066Z,18.20
2022-08-26T23:16:11.133Z,18.20
2022-08-26T23:18:39.069Z,18.20
2022-08-26T23:21:06.688Z,18.20
2022-08-26T23:23:33.892Z,18.30
2022-08-26T23:26:05.578Z,18.30
2022-08-26T23:28:33.728Z,18.30
2022-08-26T23:31:00.874Z,18.40
2022-08-26T23:33:47.936Z,18.30
2022-08-26T23:36:17.966Z,18.30
2022-08-26T23:38:52.389Z,18.20
2022-08-26T23:41:22.015Z,18.30
2022-08-26T23:43:49.586Z,18.30
2022-08-26T23:46:16.732Z,18.30
2022-08-26T23:48:44.195Z,18.30
2022-08-26T23:51:29.981Z,18.30
2022-08-26T23:53:58.024Z,18.30
2022-08-26T23:56:26.751Z,18.30
2022-08-26T23:58:54.396Z,18.30
